Airport View

Enter AWOS ICAO identifier for current METAR.

ex. KFNL

KPTK 280153Z 00000KT 10SM FEW065 SCT110 BKN250 19/16 A2975 RMK AO2 SLP069 T01890156 $

28 Sep 2020 02:33

Frequency: 125.025

Phone: 248-886-8551

Other Area AWOS: KVLL - KFNT - KDET - KD95

TAF AMD KPTK 280119Z 2801/2824 29006KT P6SM BKN045 FM280800 34008KT P6SM OVC012 FM281300 03006KT P6SM OVC020 FM281800 34010G18KT 3SM SHRA OVC010 FM282300 30012G20KT P6SM OVC008